sensor_id;sensor_type;location;lat;lon;timestamp;pressure;altitude;pressure_sealevel;temperature;humidity
59103;BME280;43999;51.660;5.616;2023-05-29T00:02:01;102086.31;;;11.93;100.00
59103;BME280;43999;51.660;5.616;2023-05-29T00:04:28;102092.75;;;11.84;100.00
59103;BME280;43999;51.660;5.616;2023-05-29T00:06:56;102096.50;;;11.79;100.00
59103;BME280;43999;51.660;5.616;2023-05-29T00:09:23;102094.88;;;11.75;100.00
59103;BME280;43999;51.660;5.616;2023-05-29T00:11:52;102101.16;;;11.71;100.00
59103;BME280;43999;51.660;5.616;2023-05-29T00:14:20;102102.22;;;11.66;100.00
59103;BME280;43999;51.660;5.616;2023-05-29T00:16:51;102098.03;;;11.61;100.00
59103;BME280;43999;51.660;5.616;2023-05-29T00:19:19;102113.78;;;11.61;100.00
59103;BME280;43999;51.660;5.616;2023-05-29T00:21:47;102107.94;;;11.54;100.00
59103;BME280;43999;51.660;5.616;2023-05-29T00:24:16;102109.69;;;11.54;100.00
59103;BME280;43999;51.660;5.616;2023-05-29T00:26:44;102106.44;;;11.47;100.00
59103;BME280;43999;51.660;5.616;2023-05-29T00:29:11;102098.75;;;11.42;100.00
59103;BME280;43999;51.660;5.616;2023-05-29T00:31:39;102107.63;;;11.38;100.00
59103;BME280;43999;51.660;5.616;2023-05-29T00:34:06;102099.88;;;11.35;100.00
59103;BME280;43999;51.660;5.616;2023-05-29T00:36:34;102104.31;;;11.33;100.00
59103;BME280;43999;51.660;5.616;2023-05-29T00:39:02;102108.03;;;11.27;100.00
59103;BME280;43999;51.660;5.616;2023-05-29T00:41:29;102116.00;;;11.24;100.00
59103;BME280;43999;51.660;5.616;2023-05-29T00:43:57;102119.63;;;11.22;100.00
59103;BME280;43999;51.660;5.616;2023-05-29T00:46:24;102124.97;;;11.19;100.00
59103;BME280;43999;51.660;5.616;2023-05-29T00:48:52;102120.72;;;11.15;100.00
59103;BME280;43999;51.660;5.616;2023-05-29T00:51:20;102114.88;;;11.08;100.00
59103;BME280;43999;51.660;5.616;2023-05-29T00:53:48;102122.72;;;11.08;100.00
59103;BME280;43999;51.660;5.616;2023-05-29T00:56:19;102127.25;;;11.03;100.00
59103;BME280;43999;51.660;5.616;2023-05-29T00:58:50;102126.47;;;11.01;100.00
59103;BME280;43999;51.660;5.616;2023-05-29T01:01:19;102131.88;;;10.96;100.00
59103;BME280;43999;51.660;5.616;2023-05-29T01:03:48;102135.50;;;10.92;100.00
59103;BME280;43999;51.660;5.616;2023-05-29T01:06:16;102139.22;;;10.86;100.00
59103;BME280;43999;51.660;5.616;2023-05-29T01:08:44;102136.69;;;10.83;100.00
59103;BME280;43999;51.660;5.616;2023-05-29T01:18:07;102149.28;;;10.72;100.00
59103;BME280;43999;51.660;5.616;2023-05-29T01:20:48;102142.47;;;10.68;100.00
59103;BME280;43999;51.660;5.616;2023-05-29T01:27:05;102139.13;;;10.63;100.00
59103;BME280;43999;51.660;5.616;2023-05-29T01:29:40;102146.34;;;10.56;100.00
59103;BME280;43999;51.660;5.616;2023-05-29T01:32:11;102146.44;;;10.53;100.00
59103;BME280;43999;51.660;5.616;2023-05-29T01:34:38;102139.59;;;10.49;100.00
59103;BME280;43999;51.660;5.616;2023-05-29T01:37:05;102147.41;;;10.50;100.00
59103;BME280;43999;51.660;5.616;2023-05-29T01:39:34;102144.84;;;10.49;100.00
59103;BME280;43999;51.660;5.616;2023-05-29T01:42:03;102147.56;;;10.46;100.00
59103;BME280;43999;51.660;5.616;2023-05-29T01:44:34;102149.34;;;10.44;100.00
59103;BME280;43999;51.660;5.616;2023-05-29T01:47:03;102139.84;;;10.41;100.00
59103;BME280;43999;51.660;5.616;2023-05-29T01:49:36;102146.88;;;10.39;100.00
59103;BME280;43999;51.660;5.616;2023-05-29T01:52:05;102140.84;;;10.37;100.00
59103;BME280;43999;51.660;5.616;2023-05-29T01:54:32;102137.50;;;10.32;100.00
59103;BME280;43999;51.660;5.616;2023-05-29T01:57:00;102146.19;;;10.34;100.00
59103;BME280;43999;51.660;5.616;2023-05-29T01:59:29;102141.09;;;10.28;100.00
59103;BME280;43999;51.660;5.616;2023-05-29T02:01:57;102142.00;;;10.27;100.00
59103;BME280;43999;51.660;5.616;2023-05-29T02:04:24;102151.72;;;10.23;100.00
59103;BME280;43999;51.660;5.616;2023-05-29T02:06:52;102139.56;;;10.20;100.00
59103;BME280;43999;51.660;5.616;2023-05-29T02:09:21;102144.00;;;10.18;100.00
59103;BME280;43999;51.660;5.616;2023-05-29T02:11:49;102137.09;;;10.16;100.00
59103;BME280;43999;51.660;5.616;2023-05-29T02:14:16;102141.50;;;10.15;100.00
59103;BME280;43999;51.660;5.616;2023-05-29T02:16:44;102143.25;;;10.15;100.00
59103;BME280;43999;51.660;5.616;2023-05-29T02:19:12;102135.53;;;10.10;100.00
59103;BME280;43999;51.660;5.616;2023-05-29T02:21:40;102132.19;;;10.05;100.00
59103;BME280;43999;51.660;5.616;2023-05-29T02:24:10;102139.28;;;10.01;100.00
59103;BME280;43999;51.660;5.616;2023-05-29T02:26:37;102155.75;;;10.05;100.00
59103;BME280;43999;51.660;5.616;2023-05-29T02:29:05;102151.59;;;9.99;100.00
59103;BME280;43999;51.660;5.616;2023-05-29T02:31:34;102156.03;;;9.96;100.00
59103;BME280;43999;51.660;5.616;2023-05-29T02:34:04;102156.88;;;9.98;100.00
59103;BME280;43999;51.660;5.616;2023-05-29T02:36:31;102160.53;;;9.92;100.00
59103;BME280;43999;51.660;5.616;2023-05-29T02:38:59;102153.50;;;9.93;100.00
59103;BME280;43999;51.660;5.616;2023-05-29T02:41:26;102169.28;;;9.91;100.00
59103;BME280;43999;51.660;5.616;2023-05-29T02:43:54;102160.66;;;9.87;100.00
59103;BME280;43999;51.660;5.616;2023-05-29T02:46:21;102163.38;;;9.84;100.00
59103;BME280;43999;51.660;5.616;2023-05-29T02:48:49;102166.91;;;9.82;100.00
59103;BME280;43999;51.660;5.616;2023-05-29T02:51:16;102164.34;;;9.80;100.00
59103;BME280;43999;51.660;5.616;2023-05-29T02:53:45;102168.81;;;9.77;100.00
59103;BME280;43999;51.660;5.616;2023-05-29T02:56:12;102161.16;;;9.71;100.00
59103;BME280;43999;51.660;5.616;2023-05-29T02:58:40;102161.91;;;9.74;100.00
59103;BME280;43999;51.660;5.616;2023-05-29T03:01:07;102162.88;;;9.72;100.00
59103;BME280;43999;51.660;5.616;2023-05-29T03:03:35;102158.72;;;9.64;100.00
59103;BME280;43999;51.660;5.616;2023-05-29T03:06:02;102159.56;;;9.65;100.00
59103;BME280;43999;51.660;5.616;2023-05-29T03:08:31;102153.56;;;9.61;100.00
59103;BME280;43999;51.660;5.616;2023-05-29T03:11:00;102146.69;;;9.57;100.00
59103;BME280;43999;51.660;5.616;2023-05-29T03:13:28;102161.50;;;9.58;100.00
59103;BME280;43999;51.660;5.616;2023-05-29T03:16:03;102165.94;;;9.56;100.00
59103;BME280;43999;51.660;5.616;2023-05-29T03:18:31;102169.41;;;9.57;100.00
59103;BME280;43999;51.660;5.616;2023-05-29T03:21:00;102164.25;;;9.54;100.00
59103;BME280;43999;51.660;5.616;2023-05-29T03:23:31;102156.34;;;9.55;100.00
59103;BME280;43999;51.660;5.616;2023-05-29T03:25:59;102161.72;;;9.50;100.00
59103;BME280;43999;51.660;5.616;2023-05-29T03:28:28;102167.00;;;9.49;100.00
59103;BME280;43999;51.660;5.616;2023-05-29T03:30:55;102172.28;;;9.47;100.00
59103;BME280;43999;51.660;5.616;2023-05-29T03:33:23;102179.19;;;9.50;100.00
59103;BME280;43999;51.660;5.616;2023-05-29T03:36:17;102181.94;;;9.45;100.00
59103;BME280;43999;51.660;5.616;2023-05-29T03:38:45;102168.00;;;9.43;100.00
59103;BME280;43999;51.660;5.616;2023-05-29T03:41:12;102175.06;;;9.41;100.00
59103;BME280;43999;51.660;5.616;2023-05-29T03:43:39;102182.81;;;9.44;100.00
59103;BME280;43999;51.660;5.616;2023-05-29T03:46:07;102164.63;;;9.40;100.00
59103;BME280;43999;51.660;5.616;2023-05-29T03:48:35;102166.38;;;9.41;100.00
59103;BME280;43999;51.660;5.616;2023-05-29T03:51:04;102170.81;;;9.37;100.00
59103;BME280;43999;51.660;5.616;2023-05-29T03:53:35;102176.03;;;9.37;100.00
59103;BME280;43999;51.660;5.616;2023-05-29T03:56:02;102173.41;;;9.37;100.00
59103;BME280;43999;51.660;5.616;2023-05-29T03:58:31;102177.75;;;9.38;100.00
59103;BME280;43999;51.660;5.616;2023-05-29T04:01:00;102184.81;;;9.36;100.00
59103;BME280;43999;51.660;5.616;2023-05-29T04:03:29;102182.94;;;9.40;100.00
59103;BME280;43999;51.660;5.616;2023-05-29T04:05:59;102190.81;;;9.40;100.00
59103;BME280;43999;51.660;5.616;2023-05-29T04:08:27;102194.34;;;9.37;100.00
59103;BME280;43999;51.660;5.616;2023-05-29T04:10:55;102200.50;;;9.36;100.00
59103;BME280;43999;51.660;5.616;2023-05-29T04:13:22;102198.66;;;9.40;100.00
59103;BME280;43999;51.660;5.616;2023-05-29T04:15:50;102209.78;;;9.46;100.00
59103;BME280;43999;51.660;5.616;2023-05-29T04:18:21;102206.31;;;9.46;100.00
59103;BME280;43999;51.660;5.616;2023-05-29T04:20:48;102208.13;;;9.44;100.00
59103;BME280;43999;51.660;5.616;2023-05-29T04:23:16;102199.41;;;9.43;100.00
59103;BME280;43999;51.660;5.616;2023-05-29T04:25:44;102201.25;;;9.40;100.00
59103;BME280;43999;51.660;5.616;2023-05-29T04:28:14;102202.91;;;9.44;100.00
59103;BME280;43999;51.660;5.616;2023-05-29T04:30:42;102192.56;;;9.39;100.00
59103;BME280;43999;51.660;5.616;2023-05-29T04:33:10;102213.34;;;9.45;100.00
59103;BME280;43999;51.660;5.616;2023-05-29T04:35:44;102207.09;;;9.49;100.00
59103;BME280;43999;51.660;5.616;2023-05-29T04:38:12;102203.53;;;9.52;100.00
59103;BME280;43999;51.660;5.616;2023-05-29T04:40:39;102208.59;;;9.58;100.00
59103;BME280;43999;51.660;5.616;2023-05-29T04:43:08;102204.94;;;9.65;100.00
59103;BME280;43999;51.660;5.616;2023-05-29T04:45:56;102208.13;;;9.75;100.00
59103;BME280;43999;51.660;5.616;2023-05-29T04:48:23;102207.19;;;9.78;100.00
59103;BME280;43999;51.660;5.616;2023-05-29T04:50:52;102218.16;;;9.91;100.00
59103;BME280;43999;51.660;5.616;2023-05-29T04:53:20;102205.78;;;9.96;100.00
59103;BME280;43999;51.660;5.616;2023-05-29T04:55:49;102215.47;;;9.94;100.00
59103;BME280;43999;51.660;5.616;2023-05-29T04:58:16;102208.44;;;9.94;100.00
59103;BME280;43999;51.660;5.616;2023-05-29T05:00:44;102204.19;;;9.92;100.00
59103;BME280;43999;51.660;5.616;2023-05-29T05:03:11;102204.81;;;10.00;100.00
59103;BME280;43999;51.660;5.616;2023-05-29T05:05:43;102200.41;;;10.00;100.00
59103;BME280;43999;51.660;5.616;2023-05-29T05:08:13;102209.06;;;10.04;100.00
59103;BME280;43999;51.660;5.616;2023-05-29T05:10:41;102212.66;;;10.00;100.00
59103;BME280;43999;51.660;5.616;2023-05-29T05:13:09;102224.72;;;10.05;100.00
59103;BME280;43999;51.660;5.616;2023-05-29T05:15:38;102227.34;;;10.05;100.00
59103;BME280;43999;51.660;5.616;2023-05-29T05:18:06;102225.31;;;10.15;100.00
59103;BME280;43999;51.660;5.616;2023-05-29T05:20:34;102242.53;;;10.24;100.00
59103;BME280;43999;51.660;5.616;2023-05-29T05:23:03;102256.38;;;10.28;100.00
59103;BME280;43999;51.660;5.616;2023-05-29T05:25:30;102251.88;;;10.31;100.00
59103;BME280;43999;51.660;5.616;2023-05-29T05:28:02;102244.03;;;10.31;100.00
59103;BME280;43999;51.660;5.616;2023-05-29T05:30:34;102252.81;;;10.30;100.00
59103;BME280;43999;51.660;5.616;2023-05-29T05:33:02;102253.59;;;10.34;100.00
59103;BME280;43999;51.660;5.616;2023-05-29T05:35:31;102246.53;;;10.36;100.00
59103;BME280;43999;51.660;5.616;2023-05-29T05:37:59;102247.16;;;10.46;100.00
59103;BME280;43999;51.660;5.616;2023-05-29T05:40:27;102246.94;;;10.52;100.00
59103;BME280;43999;51.660;5.616;2023-05-29T05:43:01;102251.78;;;10.64;100.00
59103;BME280;43999;51.660;5.616;2023-05-29T05:45:48;102251.78;;;10.64;100.00
59103;BME280;43999;51.660;5.616;2023-05-29T05:48:16;102251.34;;;10.78;100.00
59103;BME280;43999;51.660;5.616;2023-05-29T05:50:43;102240.56;;;10.87;100.00
59103;BME280;43999;51.660;5.616;2023-05-29T05:53:11;102241.44;;;10.88;100.00
59103;BME280;43999;51.660;5.616;2023-05-29T05:55:38;102236.94;;;10.91;100.00
59103;BME280;43999;51.660;5.616;2023-05-29T05:58:07;102253.16;;;11.03;100.00
59103;BME280;43999;51.660;5.616;2023-05-29T06:00:35;102241.81;;;11.02;100.00
59103;BME280;43999;51.660;5.616;2023-05-29T06:03:02;102241.72;;;11.05;100.00
59103;BME280;43999;51.660;5.616;2023-05-29T06:05:48;102244.72;;;11.20;100.00
59103;BME280;43999;51.660;5.616;2023-05-29T06:08:17;102262.94;;;11.24;100.00
59103;BME280;43999;51.660;5.616;2023-05-29T06:10:46;102247.16;;;11.26;100.00
59103;BME280;43999;51.660;5.616;2023-05-29T06:13:13;102229.59;;;11.28;100.00
59103;BME280;43999;51.660;5.616;2023-05-29T06:15:53;102241.09;;;11.24;100.00
59103;BME280;43999;51.660;5.616;2023-05-29T06:18:20;102247.88;;;11.31;100.00
59103;BME280;43999;51.660;5.616;2023-05-29T06:20:48;102249.44;;;11.35;100.00
59103;BME280;43999;51.660;5.616;2023-05-29T06:23:16;102262.38;;;11.41;100.00
59103;BME280;43999;51.660;5.616;2023-05-29T06:25:44;102257.00;;;11.44;100.00
59103;BME280;43999;51.660;5.616;2023-05-29T06:28:12;102266.34;;;11.53;100.00
59103;BME280;43999;51.660;5.616;2023-05-29T06:30:40;102270.88;;;11.73;100.00
59103;BME280;43999;51.660;5.616;2023-05-29T06:33:08;102263.00;;;11.73;100.00
59103;BME280;43999;51.660;5.616;2023-05-29T06:35:38;102268.81;;;11.81;100.00
59103;BME280;43999;51.660;5.616;2023-05-29T06:38:05;102268.50;;;11.91;100.00
59103;BME280;43999;51.660;5.616;2023-05-29T06:40:34;102262.44;;;11.89;100.00
59103;BME280;43999;51.660;5.616;2023-05-29T06:43:01;102257.25;;;11.87;100.00
59103;BME280;43999;51.660;5.616;2023-05-29T06:45:38;102266.53;;;11.97;100.00
59103;BME280;43999;51.660;5.616;2023-05-29T06:48:06;102266.47;;;11.99;100.00
59103;BME280;43999;51.660;5.616;2023-05-29T06:50:34;102263.78;;;12.00;100.00
59103;BME280;43999;51.660;5.616;2023-05-29T06:53:30;102273.84;;;12.13;100.00
59103;BME280;43999;51.660;5.616;2023-05-29T06:55:59;102269.72;;;12.29;99.25
59103;BME280;43999;51.660;5.616;2023-05-29T06:58:27;102263.16;;;12.41;98.00
59103;BME280;43999;51.660;5.616;2023-05-29T07:00:55;102265.66;;;12.44;97.20
59103;BME280;43999;51.660;5.616;2023-05-29T07:03:31;102267.47;;;12.42;97.96
59103;BME280;43999;51.660;5.616;2023-05-29T07:06:02;102260.03;;;12.53;97.38
59103;BME280;43999;51.660;5.616;2023-05-29T07:08:32;102271.16;;;12.60;95.80
59103;BME280;43999;51.660;5.616;2023-05-29T07:11:01;102269.13;;;12.67;96.34
59103;BME280;43999;51.660;5.616;2023-05-29T07:13:29;102271.78;;;12.89;93.62
59103;BME280;43999;51.660;5.616;2023-05-29T07:15:58;102271.47;;;12.97;94.08
59103;BME280;43999;51.660;5.616;2023-05-29T07:18:37;102263.97;;;13.08;93.17
59103;BME280;43999;51.660;5.616;2023-05-29T07:21:06;102271.09;;;13.26;89.65
59103;BME280;43999;51.660;5.616;2023-05-29T07:23:33;102269.72;;;13.38;87.86
59103;BME280;43999;51.660;5.616;2023-05-29T07:26:01;102269.41;;;13.46;86.11
59103;BME280;43999;51.660;5.616;2023-05-29T07:28:36;102270.59;;;13.39;88.16
59103;BME280;43999;51.660;5.616;2023-05-29T07:31:03;102273.81;;;13.45;87.12
59103;BME280;43999;51.660;5.616;2023-05-29T07:33:33;102294.81;;;13.47;86.33
59103;BME280;43999;51.660;5.616;2023-05-29T07:36:01;102284.41;;;13.44;85.72
59103;BME280;43999;51.660;5.616;2023-05-29T07:38:29;102290.84;;;13.37;87.38
59103;BME280;43999;51.660;5.616;2023-05-29T07:40:57;102279.41;;;13.38;87.20
59103;BME280;43999;51.660;5.616;2023-05-29T07:43:30;102288.97;;;13.40;86.46
59103;BME280;43999;51.660;5.616;2023-05-29T07:46:00;102288.56;;;13.50;85.14
59103;BME280;43999;51.660;5.616;2023-05-29T07:48:29;102297.19;;;13.53;85.09
59103;BME280;43999;51.660;5.616;2023-05-29T07:50:57;102282.84;;;13.60;84.83
59103;BME280;43999;51.660;5.616;2023-05-29T07:53:27;102283.94;;;13.75;85.21
59103;BME280;43999;51.660;5.616;2023-05-29T07:55:56;102274.84;;;13.83;87.26
59103;BME280;43999;51.660;5.616;2023-05-29T07:58:24;102287.81;;;14.06;85.93
59103;BME280;43999;51.660;5.616;2023-05-29T08:00:52;102288.13;;;14.38;83.75
59103;BME280;43999;51.660;5.616;2023-05-29T08:03:20;102285.41;;;14.78;74.23
59103;BME280;43999;51.660;5.616;2023-05-29T08:06:11;102297.16;;;14.90;76.61
59103;BME280;43999;51.660;5.616;2023-05-29T08:08:38;102298.66;;;15.13;73.56
59103;BME280;43999;51.660;5.616;2023-05-29T08:11:06;102295.53;;;15.39;73.27
59103;BME280;43999;51.660;5.616;2023-05-29T08:13:35;102295.31;;;15.62;73.52
59103;BME280;43999;51.660;5.616;2023-05-29T08:16:03;102292.84;;;15.92;72.11
59103;BME280;43999;51.660;5.616;2023-05-29T08:18:31;102297.63;;;16.35;66.64
59103;BME280;43999;51.660;5.616;2023-05-29T08:20:59;102301.09;;;16.51;66.82
59103;BME280;43999;51.660;5.616;2023-05-29T08:23:30;102313.06;;;16.58;65.98
59103;BME280;43999;51.660;5.616;2023-05-29T08:26:02;102300.06;;;16.70;65.32
59103;BME280;43999;51.660;5.616;2023-05-29T08:28:30;102307.22;;;16.83;64.59
59103;BME280;43999;51.660;5.616;2023-05-29T08:30:57;102303.50;;;16.88;62.95
59103;BME280;43999;51.660;5.616;2023-05-29T08:33:26;102299.66;;;16.93;62.97
59103;BME280;43999;51.660;5.616;2023-05-29T08:35:56;102304.97;;;16.93;64.53
59103;BME280;43999;51.660;5.616;2023-05-29T08:38:26;102307.47;;;17.11;64.92
59103;BME280;43999;51.660;5.616;2023-05-29T08:40:56;102297.03;;;17.38;60.59
59103;BME280;43999;51.660;5.616;2023-05-29T08:43:29;102303.19;;;17.38;62.89
59103;BME280;43999;51.660;5.616;2023-05-29T08:46:02;102307.88;;;17.64;60.95
59103;BME280;43999;51.660;5.616;2023-05-29T08:48:30;102308.47;;;17.83;60.39
59103;BME280;43999;51.660;5.616;2023-05-29T08:50:59;102309.91;;;17.89;61.42
59103;BME280;43999;51.660;5.616;2023-05-29T08:53:30;102311.31;;;18.23;56.72
59103;BME280;43999;51.660;5.616;2023-05-29T08:56:00;102314.28;;;18.19;56.59
59103;BME280;43999;51.660;5.616;2023-05-29T08:58:29;102317.88;;;18.18;57.64
59103;BME280;43999;51.660;5.616;2023-05-29T09:00:58;102319.88;;;18.14;58.29
59103;BME280;43999;51.660;5.616;2023-05-29T09:03:29;102315.69;;;18.10;58.30
59103;BME280;43999;51.660;5.616;2023-05-29T09:06:00;102328.94;;;18.10;59.00
59103;BME280;43999;51.660;5.616;2023-05-29T09:08:30;102321.06;;;18.23;57.14
59103;BME280;43999;51.660;5.616;2023-05-29T09:10:58;102310.00;;;18.16;58.61
59103;BME280;43999;51.660;5.616;2023-05-29T09:13:26;102308.78;;;18.22;58.81
59103;BME280;43999;51.660;5.616;2023-05-29T09:15:59;102313.75;;;18.41;57.76
59103;BME280;43999;51.660;5.616;2023-05-29T09:18:31;102306.00;;;18.65;55.51
59103;BME280;43999;51.660;5.616;2023-05-29T09:20:59;102312.28;;;18.50;54.79
59103;BME280;43999;51.660;5.616;2023-05-29T09:23:34;102316.63;;;18.23;56.32
59103;BME280;43999;51.660;5.616;2023-05-29T09:26:03;102316.53;;;18.10;57.80
59103;BME280;43999;51.660;5.616;2023-05-29T09:28:31;102309.91;;;18.18;57.25
59103;BME280;43999;51.660;5.616;2023-05-29T09:30:58;102314.47;;;18.16;57.34
59103;BME280;43999;51.660;5.616;2023-05-29T09:33:26;102313.41;;;18.18;57.17
59103;BME280;43999;51.660;5.616;2023-05-29T09:35:53;102314.63;;;18.27;57.99
59103;BME280;43999;51.660;5.616;2023-05-29T09:38:21;102306.94;;;18.37;57.35
59103;BME280;43999;51.660;5.616;2023-05-29T09:40:52;102312.91;;;18.40;57.91
59103;BME280;43999;51.660;5.616;2023-05-29T09:43:22;102313.81;;;18.54;56.67
59103;BME280;43999;51.660;5.616;2023-05-29T09:45:51;102312.00;;;18.54;57.52
59103;BME280;43999;51.660;5.616;2023-05-29T09:48:22;102316.41;;;18.68;57.52
59103;BME280;43999;51.660;5.616;2023-05-29T09:50:50;102313.84;;;18.81;58.51
59103;BME280;43999;51.660;5.616;2023-05-29T09:53:24;102309.50;;;19.20;55.03
59103;BME280;43999;51.660;5.616;2023-05-29T09:55:55;102309.63;;;19.31;54.78
59103;BME280;43999;51.660;5.616;2023-05-29T09:58:24;102307.06;;;19.30;54.54
59103;BME280;43999;51.660;5.616;2023-05-29T10:00:57;102310.41;;;19.33;55.24
59103;BME280;43999;51.660;5.616;2023-05-29T10:03:27;102313.69;;;19.50;51.69
59103;BME280;43999;51.660;5.616;2023-05-29T10:05:57;102317.59;;;19.31;52.73
59103;BME280;43999;51.660;5.616;2023-05-29T10:08:26;102304.09;;;19.22;53.91
59103;BME280;43999;51.660;5.616;2023-05-29T10:11:01;102307.63;;;19.35;53.84
59103;BME280;43999;51.660;5.616;2023-05-29T10:13:38;102304.13;;;19.47;52.55
59103;BME280;43999;51.660;5.616;2023-05-29T10:16:11;102313.59;;;19.51;52.12
59103;BME280;43999;51.660;5.616;2023-05-29T10:18:55;102301.06;;;19.53;52.39
59103;BME280;43999;51.660;5.616;2023-05-29T10:21:27;102302.44;;;19.72;51.60
59103;BME280;43999;51.660;5.616;2023-05-29T10:24:07;102308.50;;;19.87;50.95
59103;BME280;43999;51.660;5.616;2023-05-29T10:26:39;102304.25;;;19.84;50.94
59103;BME280;43999;51.660;5.616;2023-05-29T10:38:16;102297.81;;;20.26;50.03
59103;BME280;43999;51.660;5.616;2023-05-29T10:40:48;102283.50;;;20.39;49.26
59103;BME280;43999;51.660;5.616;2023-05-29T10:43:34;102283.28;;;20.42;49.81
59103;BME280;43999;51.660;5.616;2023-05-29T10:46:04;102291.53;;;20.51;50.34
59103;BME280;43999;51.660;5.616;2023-05-29T10:48:37;102290.63;;;20.76;49.98
59103;BME280;43999;51.660;5.616;2023-05-29T10:51:07;102281.38;;;20.93;49.08
59103;BME280;43999;51.660;5.616;2023-05-29T10:53:53;102284.66;;;20.97;47.89
59103;BME280;43999;51.660;5.616;2023-05-29T10:56:28;102286.97;;;21.01;47.74
59103;BME280;43999;51.660;5.616;2023-05-29T10:58:59;102280.56;;;21.04;47.49
59103;BME280;43999;51.660;5.616;2023-05-29T11:01:31;102292.19;;;21.03;47.21
59103;BME280;43999;51.660;5.616;2023-05-29T11:07:01;102280.63;;;20.91;46.36
59103;BME280;43999;51.660;5.616;2023-05-29T11:09:38;102285.78;;;20.70;48.51
59103;BME280;43999;51.660;5.616;2023-05-29T11:12:24;102286.50;;;20.72;48.57
59103;BME280;43999;51.660;5.616;2023-05-29T11:15:08;102271.91;;;20.65;46.96
59103;BME280;43999;51.660;5.616;2023-05-29T11:17:43;102286.09;;;20.65;47.47
59103;BME280;43999;51.660;5.616;2023-05-29T11:20:43;102266.91;;;20.60;46.91
59103;BME280;43999;51.660;5.616;2023-05-29T11:23:17;102276.94;;;20.56;47.35
59103;BME280;43999;51.660;5.616;2023-05-29T11:25:46;102277.38;;;20.50;47.97
59103;BME280;43999;51.660;5.616;2023-05-29T11:28:15;102280.28;;;20.47;47.40
59103;BME280;43999;51.660;5.616;2023-05-29T11:30:46;102279.00;;;20.40;48.04
59103;BME280;43999;51.660;5.616;2023-05-29T11:33:27;102274.69;;;20.39;47.91
59103;BME280;43999;51.660;5.616;2023-05-29T11:36:00;102266.03;;;20.35;47.96
59103;BME280;43999;51.660;5.616;2023-05-29T11:38:28;102265.16;;;20.23;48.28
59103;BME280;43999;51.660;5.616;2023-05-29T11:40:57;102259.38;;;20.17;49.13
59103;BME280;43999;51.660;5.616;2023-05-29T11:43:27;102262.03;;;20.30;48.23
59103;BME280;43999;51.660;5.616;2023-05-29T11:45:55;102263.59;;;20.32;48.53
59103;BME280;43999;51.660;5.616;2023-05-29T11:48:24;102270.41;;;20.36;46.50
59103;BME280;43999;51.660;5.616;2023-05-29T11:50:53;102260.22;;;20.30;47.19
59103;BME280;43999;51.660;5.616;2023-05-29T11:53:20;102265.97;;;20.24;48.09
59103;BME280;43999;51.660;5.616;2023-05-29T11:55:48;102261.16;;;20.29;47.31
59103;BME280;43999;51.660;5.616;2023-05-29T11:58:16;102260.03;;;20.45;48.02
59103;BME280;43999;51.660;5.616;2023-05-29T12:00:44;102250.31;;;20.56;47.11
59103;BME280;43999;51.660;5.616;2023-05-29T12:03:14;102259.66;;;20.62;47.33
59103;BME280;43999;51.660;5.616;2023-05-29T12:05:47;102251.47;;;20.65;47.53
59103;BME280;43999;51.660;5.616;2023-05-29T12:08:24;102267.00;;;20.58;46.84
59103;BME280;43999;51.660;5.616;2023-05-29T12:10:53;102262.91;;;20.54;46.19
59103;BME280;43999;51.660;5.616;2023-05-29T12:13:21;102265.59;;;20.41;47.19
59103;BME280;43999;51.660;5.616;2023-05-29T12:15:58;102265.53;;;20.30;46.83
59103;BME280;43999;51.660;5.616;2023-05-29T12:18:32;102257.06;;;20.12;48.14
59103;BME280;43999;51.660;5.616;2023-05-29T12:21:03;102256.66;;;20.05;48.36
59103;BME280;43999;51.660;5.616;2023-05-29T12:23:31;102259.72;;;20.12;46.60
59103;BME280;43999;51.660;5.616;2023-05-29T12:25:59;102257.50;;;20.06;46.26
59103;BME280;43999;51.660;5.616;2023-05-29T12:28:26;102253.50;;;20.00;47.32
59103;BME280;43999;51.660;5.616;2023-05-29T12:30:59;102260.16;;;20.06;44.85
59103;BME280;43999;51.660;5.616;2023-05-29T12:33:32;102254.44;;;19.99;44.62
59103;BME280;43999;51.660;5.616;2023-05-29T12:36:08;102264.25;;;19.86;45.54
59103;BME280;43999;51.660;5.616;2023-05-29T12:38:51;102264.34;;;19.71;46.58
59103;BME280;43999;51.660;5.616;2023-05-29T12:41:33;102264.13;;;19.75;47.34
59103;BME280;43999;51.660;5.616;2023-05-29T12:44:05;102261.16;;;19.92;46.93
59103;BME280;43999;51.660;5.616;2023-05-29T12:46:40;102265.41;;;19.95;45.08
59103;BME280;43999;51.660;5.616;2023-05-29T12:49:13;102265.63;;;19.92;44.23
59103;BME280;43999;51.660;5.616;2023-05-29T12:51:45;102251.38;;;19.93;45.19
59103;BME280;43999;51.660;5.616;2023-05-29T12:54:16;102257.44;;;19.95;45.36
59103;BME280;43999;51.660;5.616;2023-05-29T12:56:44;102261.25;;;20.03;44.34
59103;BME280;43999;51.660;5.616;2023-05-29T12:59:13;102268.16;;;20.06;44.64
59103;BME280;43999;51.660;5.616;2023-05-29T13:01:42;102253.88;;;20.07;43.92
59103;BME280;43999;51.660;5.616;2023-05-29T13:04:10;102271.19;;;20.26;43.26
59103;BME280;43999;51.660;5.616;2023-05-29T13:06:39;102266.25;;;20.32;42.72
59103;BME280;43999;51.660;5.616;2023-05-29T13:09:07;102276.56;;;20.37;42.45
59103;BME280;43999;51.660;5.616;2023-05-29T13:11:35;102270.25;;;20.51;41.49
59103;BME280;43999;51.660;5.616;2023-05-29T13:14:04;102251.25;;;20.55;40.70
59103;BME280;43999;51.660;5.616;2023-05-29T13:16:33;102273.63;;;20.66;41.17
59103;BME280;43999;51.660;5.616;2023-05-29T13:19:02;102253.47;;;20.62;42.42
59103;BME280;43999;51.660;5.616;2023-05-29T13:21:31;102265.91;;;20.74;40.92
59103;BME280;43999;51.660;5.616;2023-05-29T13:23:59;102267.28;;;20.80;40.74
59103;BME280;43999;51.660;5.616;2023-05-29T13:26:27;102263.25;;;20.74;40.91